createdAt,value
2022-10-07T00:01:16.828Z,99.90
2022-10-07T00:03:44.942Z,99.90
2022-10-07T00:06:15.953Z,99.90
2022-10-07T00:08:46.470Z,99.90
2022-10-07T00:11:20.797Z,99.90
2022-10-07T00:13:51.809Z,99.90
2022-10-07T00:16:24.680Z,99.90
2022-10-07T00:18:54.508Z,99.90
2022-10-07T00:21:22.443Z,99.90
2022-10-07T00:23:52.704Z,99.90
2022-10-07T00:26:25.259Z,99.90
2022-10-07T00:28:54.291Z,99.90
2022-10-07T00:31:24.775Z,99.90
2022-10-07T00:33:53.858Z,99.90
2022-10-07T00:36:24.431Z,99.90
2022-10-07T00:38:55.882Z,99.90
2022-10-07T00:41:27.786Z,99.90
2022-10-07T00:43:56.347Z,99.90
2022-10-07T00:46:33.764Z,99.90
2022-10-07T00:49:06.230Z,99.90
2022-10-07T00:51:36.436Z,99.90
2022-10-07T00:54:08.252Z,99.90
2022-10-07T00:56:38.176Z,99.90
2022-10-07T00:59:06.676Z,99.90
2022-10-07T01:01:35.159Z,99.90
2022-10-07T01:04:03.238Z,99.90
2022-10-07T01:06:31.264Z,99.90
2022-10-07T01:08:59.273Z,99.90
2022-10-07T01:11:43.720Z,99.90
2022-10-07T01:14:20.537Z,99.90
2022-10-07T01:16:58.891Z,99.90
2022-10-07T01:20:01.283Z,99.90
2022-10-07T01:22:42.853Z,99.90
2022-10-07T01:25:32.132Z,99.90
2022-10-07T01:28:08.445Z,99.90
2022-10-07T01:30:42.388Z,99.90
2022-10-07T01:33:17.363Z,99.90
2022-10-07T01:35:49.201Z,99.90
2022-10-07T01:38:21.233Z,99.90
2022-10-07T01:40:55.283Z,99.90
2022-10-07T01:43:25.013Z,99.90
2022-10-07T01:45:56.360Z,99.90
2022-10-07T01:48:24.819Z,99.90
2022-10-07T01:50:53.963Z,99.90
2022-10-07T01:53:36.597Z,99.90
2022-10-07T01:56:37.635Z,99.90
2022-10-07T01:59:46.042Z,99.90
2022-10-07T02:02:28.655Z,99.90
2022-10-07T02:05:04.771Z,99.90
2022-10-07T02:07:44.438Z,99.90
2022-10-07T02:10:21.085Z,99.90
2022-10-07T02:12:53.805Z,99.90
2022-10-07T02:15:28.134Z,99.90
2022-10-07T02:18:00.069Z,99.90
2022-10-07T02:20:31.959Z,99.90
2022-10-07T02:23:03.298Z,99.90
2022-10-07T02:25:39.874Z,99.90
2022-10-07T02:28:10.648Z,99.90
2022-10-07T02:30:41.718Z,99.90
2022-10-07T02:33:11.278Z,99.90
2022-10-07T02:35:46.568Z,99.90
2022-10-07T02:38:17.843Z,99.90
2022-10-07T02:40:59.702Z,99.90
2022-10-07T02:43:36.450Z,99.90
2022-10-07T02:46:10.913Z,99.90
2022-10-07T02:48:45.640Z,99.90
2022-10-07T02:51:21.176Z,99.90
2022-10-07T02:53:52.356Z,99.90
2022-10-07T02:56:23.838Z,99.90
2022-10-07T02:58:53.389Z,99.90
2022-10-07T03:01:27.455Z,99.90
2022-10-07T03:03:57.437Z,99.90
2022-10-07T03:06:26.723Z,99.90
2022-10-07T03:08:57.042Z,99.90
2022-10-07T03:11:26.215Z,99.90
2022-10-07T03:13:55.575Z,99.90
2022-10-07T03:16:25.434Z,99.90
2022-10-07T03:18:54.150Z,99.90
2022-10-07T03:21:22.093Z,99.90
2022-10-07T03:23:52.306Z,99.90
2022-10-07T03:26:20.655Z,99.90
2022-10-07T03:28:49.197Z,99.90
2022-10-07T03:31:17.232Z,99.90
2022-10-07T03:33:46.562Z,99.90
2022-10-07T03:36:14.549Z,99.90
2022-10-07T03:38:42.512Z,99.90
2022-10-07T03:41:10.446Z,99.90
2022-10-07T03:43:38.697Z,99.90
2022-10-07T03:46:06.995Z,99.90
2022-10-07T03:48:35.014Z,99.90
2022-10-07T03:51:04.815Z,99.90
2022-10-07T03:53:32.977Z,99.90
2022-10-07T03:56:00.973Z,99.90
2022-10-07T03:58:29.335Z,99.90
2022-10-07T04:01:06.966Z,99.90
2022-10-07T04:03:35.011Z,99.90
2022-10-07T04:06:04.627Z,99.90
2022-10-07T04:08:33.792Z,99.90
2022-10-07T04:11:03.340Z,99.90
2022-10-07T04:13:31.681Z,99.90
2022-10-07T04:15:59.728Z,99.90
2022-10-07T04:18:27.779Z,99.90
2022-10-07T04:20:59.923Z,99.90
2022-10-07T04:23:29.773Z,99.90
2022-10-07T04:25:57.773Z,99.90
2022-10-07T04:28:26.879Z,99.90
2022-10-07T04:30:55.286Z,99.90
2022-10-07T04:33:25.178Z,99.90
2022-10-07T04:35:53.331Z,99.90
2022-10-07T04:38:25.252Z,99.90
2022-10-07T04:40:56.950Z,99.90
2022-10-07T04:43:26.987Z,99.90
2022-10-07T04:46:01.679Z,99.90
2022-10-07T04:48:29.639Z,99.90
2022-10-07T04:51:03.087Z,99.90
2022-10-07T04:53:31.925Z,99.90
2022-10-07T04:56:01.470Z,99.90
2022-10-07T04:58:30.657Z,99.90
2022-10-07T05:01:00.888Z,99.90
2022-10-07T05:03:30.499Z,99.90
2022-10-07T05:06:05.742Z,99.90
2022-10-07T05:08:34.642Z,99.90
2022-10-07T05:11:04.795Z,99.90
2022-10-07T05:13:33.674Z,99.90
2022-10-07T05:16:03.663Z,99.90
2022-10-07T05:18:33.295Z,99.90
2022-10-07T05:21:06.266Z,99.90
2022-10-07T05:23:35.825Z,99.90
2022-10-07T05:26:08.642Z,99.90
2022-10-07T05:28:37.697Z,99.90
2022-10-07T05:31:08.364Z,99.90
2022-10-07T05:33:37.380Z,99.90
2022-10-07T05:36:07.847Z,99.90
2022-10-07T05:38:36.832Z,99.90
2022-10-07T05:41:07.870Z,99.90
2022-10-07T05:43:40.440Z,99.90
2022-10-07T05:46:12.323Z,99.90
2022-10-07T05:48:40.415Z,99.90
2022-10-07T05:51:09.101Z,99.90
2022-10-07T05:53:40.928Z,99.90
2022-10-07T05:56:13.063Z,99.90
2022-10-07T05:58:41.349Z,99.90
2022-10-07T06:01:15.581Z,99.90
2022-10-07T06:03:44.894Z,99.90
2022-10-07T06:06:12.896Z,99.90
2022-10-07T06:08:40.914Z,99.90
2022-10-07T06:11:31.651Z,99.90
2022-10-07T06:14:00.146Z,99.90
2022-10-07T06:16:28.625Z,99.90
2022-10-07T06:18:57.297Z,99.90
2022-10-07T06:21:28.017Z,99.90
2022-10-07T06:23:58.379Z,99.90
2022-10-07T06:26:28.318Z,99.90
2022-10-07T06:28:56.431Z,99.90
2022-10-07T06:31:25.781Z,99.90
2022-10-07T06:33:54.319Z,99.90
2022-10-07T06:36:22.685Z,99.90
2022-10-07T06:38:53.164Z,99.90
2022-10-07T06:41:21.899Z,99.90
2022-10-07T06:43:56.156Z,99.90
2022-10-07T06:46:24.454Z,99.90
2022-10-07T06:48:52.590Z,99.90
2022-10-07T06:51:22.528Z,99.90
2022-10-07T06:53:53.999Z,99.90
2022-10-07T06:56:22.444Z,99.90
2022-10-07T06:58:53.259Z,99.90
2022-10-07T07:01:21.377Z,99.90
2022-10-07T07:03:49.485Z,99.90
2022-10-07T07:06:18.164Z,99.90
2022-10-07T07:08:47.988Z,99.90
2022-10-07T07:11:36.886Z,99.90
2022-10-07T07:14:07.915Z,99.90
2022-10-07T07:16:36.337Z,99.90
2022-10-07T07:19:08.533Z,99.90
2022-10-07T07:21:38.161Z,99.90
2022-10-07T07:24:07.670Z,99.90
2022-10-07T07:26:40.109Z,99.90
2022-10-07T07:29:10.568Z,99.90
2022-10-07T07:31:38.783Z,99.90
2022-10-07T07:34:11.322Z,99.90
2022-10-07T07:36:41.253Z,99.90
2022-10-07T07:39:13.086Z,99.90
2022-10-07T07:41:46.580Z,99.90
2022-10-07T07:44:18.245Z,99.90
2022-10-07T07:46:49.137Z,99.80
2022-10-07T07:49:17.641Z,99.60
2022-10-07T07:51:46.476Z,99.40
2022-10-07T07:54:14.950Z,99.50
2022-10-07T07:56:43.379Z,99.40
2022-10-07T07:59:12.342Z,99.30
2022-10-07T08:01:41.985Z,99.10
2022-10-07T08:04:11.384Z,99.50
2022-10-07T08:06:40.325Z,98.90
2022-10-07T08:09:10.589Z,98.70
2022-10-07T08:11:38.694Z,96.90
2022-10-07T08:14:07.945Z,97.30
2022-10-07T08:16:37.955Z,98.10
2022-10-07T08:19:07.470Z,96.30
2022-10-07T08:21:35.545Z,94.80
2022-10-07T08:24:08.681Z,94.10
2022-10-07T08:26:38.726Z,94.50
2022-10-07T08:29:07.329Z,93.90
2022-10-07T08:31:36.605Z,92.40
2022-10-07T08:34:07.280Z,92.90
2022-10-07T08:36:35.583Z,93.00
2022-10-07T08:39:05.976Z,92.60
2022-10-07T08:41:55.944Z,91.00
2022-10-07T08:44:29.824Z,91.10
2022-10-07T08:47:06.335Z,90.90
2022-10-07T08:49:45.364Z,88.10
2022-10-07T08:52:34.161Z,88.10
2022-10-07T08:55:02.721Z,88.90
2022-10-07T08:57:55.501Z,89.10
2022-10-07T09:00:25.765Z,87.40
2022-10-07T09:03:08.388Z,88.10
2022-10-07T09:05:42.740Z,91.80
2022-10-07T09:08:20.567Z,92.20
2022-10-07T09:10:50.781Z,89.60
2022-10-07T09:13:23.015Z,86.30
2022-10-07T09:15:57.768Z,86.40
2022-10-07T09:18:31.868Z,87.10
2022-10-07T09:21:04.818Z,85.80
2022-10-07T09:23:36.009Z,83.70
2022-10-07T09:26:12.132Z,83.90
2022-10-07T09:28:41.209Z,82.40
2022-10-07T09:31:11.553Z,83.00
2022-10-07T09:33:43.730Z,80.90
2022-10-07T09:36:18.216Z,79.00
2022-10-07T09:38:49.365Z,78.70
2022-10-07T09:41:22.410Z,78.10
2022-10-07T09:44:07.368Z,78.50
2022-10-07T09:46:48.755Z,75.50
2022-10-07T09:49:39.579Z,75.00
2022-10-07T09:52:19.056Z,72.90
2022-10-07T09:54:51.594Z,69.60
2022-10-07T09:57:33.854Z,66.70
2022-10-07T10:00:24.568Z,69.20
2022-10-07T10:03:00.147Z,69.10
2022-10-07T10:05:35.454Z,67.50
2022-10-07T10:08:08.274Z,69.90
2022-10-07T10:10:37.811Z,71.70
2022-10-07T10:13:07.867Z,69.40
2022-10-07T10:15:42.900Z,68.60
2022-10-07T10:18:37.917Z,69.30
2022-10-07T10:21:29.739Z,63.30
2022-10-07T10:24:03.683Z,65.60
2022-10-07T10:26:56.716Z,63.20
2022-10-07T10:29:47.974Z,64.30
2022-10-07T10:33:01.366Z,60.90
2022-10-07T10:35:32.769Z,62.90
2022-10-07T10:38:18.519Z,63.40
2022-10-07T10:40:58.027Z,64.30
2022-10-07T10:43:35.686Z,65.20
2022-10-07T10:46:27.944Z,65.50
2022-10-07T10:49:06.851Z,66.40
2022-10-07T10:51:53.459Z,63.30
2022-10-07T10:54:31.564Z,63.80
2022-10-07T10:57:14.808Z,63.60
2022-10-07T11:00:00.882Z,64.00
2022-10-07T11:02:54.468Z,62.90
2022-10-07T11:05:26.171Z,63.50
2022-10-07T11:08:02.006Z,64.80
2022-10-07T11:10:36.887Z,64.30
2022-10-07T11:13:35.663Z,65.30
2022-10-07T11:16:12.317Z,64.50
2022-10-07T11:18:45.844Z,64.60
2022-10-07T11:21:21.556Z,64.10
2022-10-07T11:23:57.575Z,64.60
2022-10-07T11:26:34.680Z,63.50
2022-10-07T11:29:18.140Z,61.60
2022-10-07T11:31:53.333Z,63.00
2022-10-07T11:34:30.972Z,63.30
2022-10-07T11:37:06.147Z,65.00
2022-10-07T11:39:38.719Z,69.20
2022-10-07T11:42:15.740Z,63.90
2022-10-07T11:44:55.218Z,63.00
2022-10-07T11:47:28.002Z,65.10
2022-10-07T11:50:05.884Z,64.60
2022-10-07T11:52:40.028Z,63.70
2022-10-07T11:55:12.048Z,65.90
2022-10-07T11:57:43.292Z,66.80
2022-10-07T12:00:26.647Z,69.50
2022-10-07T12:02:56.236Z,70.50
2022-10-07T12:05:58.670Z,71.80
2022-10-07T12:08:34.305Z,74.20
2022-10-07T12:11:47.776Z,73.60
2022-10-07T12:14:43.553Z,73.30
2022-10-07T12:17:28.103Z,73.10
2022-10-07T12:20:45.032Z,74.40
2022-10-07T12:23:40.063Z,74.60
2022-10-07T12:26:51.246Z,75.10
2022-10-07T12:29:45.404Z,76.40
2022-10-07T12:32:57.325Z,76.80
2022-10-07T12:35:52.867Z,77.40
2022-10-07T12:38:29.478Z,77.60
2022-10-07T12:41:32.371Z,78.40
2022-10-07T12:44:12.586Z,80.50
2022-10-07T12:46:47.729Z,78.80
2022-10-07T12:49:25.152Z,79.70
2022-10-07T12:51:55.684Z,78.70
2022-10-07T12:54:33.232Z,81.60
2022-10-07T12:57:03.804Z,86.30
2022-10-07T12:59:48.550Z,83.00
2022-10-07T13:03:10.278Z,84.00
2022-10-07T13:06:52.451Z,84.90
2022-10-07T13:09:55.673Z,84.30
2022-10-07T13:12:43.181Z,85.30
2022-10-07T13:15:31.485Z,86.60
2022-10-07T13:18:10.641Z,85.80
2022-10-07T13:21:03.703Z,86.30
2022-10-07T13:23:32.724Z,88.20
2022-10-07T13:26:03.098Z,90.30
2022-10-07T13:28:40.170Z,90.80
2022-10-07T13:31:20.233Z,90.50
2022-10-07T13:33:49.635Z,90.50
2022-10-07T13:36:23.284Z,90.50
2022-10-07T13:38:54.786Z,91.10
2022-10-07T13:41:27.218Z,91.30
2022-10-07T13:43:59.767Z,90.80
2022-10-07T13:46:31.682Z,91.20
2022-10-07T13:49:01.324Z,91.90
2022-10-07T13:51:35.287Z,91.60
2022-10-07T13:54:05.701Z,91.30
2022-10-07T13:56:36.066Z,91.60
2022-10-07T13:59:06.650Z,91.30
2022-10-07T14:01:40.149Z,91.60
2022-10-07T14:04:26.330Z,92.00
2022-10-07T14:07:00.219Z,92.40
2022-10-07T14:10:04.733Z,92.60
2022-10-07T14:12:37.685Z,93.50
2022-10-07T14:15:11.484Z,93.10
2022-10-07T14:17:44.702Z,93.70
2022-10-07T14:20:22.994Z,95.00
2022-10-07T14:22:55.285Z,96.00
2022-10-07T14:25:28.944Z,96.50
2022-10-07T14:28:17.237Z,95.60
2022-10-07T14:31:04.687Z,97.40
2022-10-07T14:34:04.689Z,95.50
2022-10-07T14:36:33.539Z,95.70
2022-10-07T14:39:23.143Z,95.90
2022-10-07T14:41:51.314Z,95.70
2022-10-07T14:44:19.918Z,95.70
2022-10-07T14:46:48.047Z,96.60
2022-10-07T14:49:16.008Z,97.10
2022-10-07T14:51:46.162Z,97.70
2022-10-07T14:54:15.496Z,99.70
2022-10-07T14:56:43.482Z,98.40
2022-10-07T14:59:15.192Z,97.70
2022-10-07T15:01:43.163Z,98.70
2022-10-07T15:04:11.260Z,97.80
2022-10-07T15:06:39.417Z,99.70
2022-10-07T15:09:07.394Z,99.90
2022-10-07T15:11:37.399Z,99.90
2022-10-07T15:14:05.344Z,99.90
2022-10-07T15:16:33.349Z,99.90
2022-10-07T15:19:02.067Z,99.90
2022-10-07T15:21:30.279Z,99.90
2022-10-07T15:23:58.395Z,99.90
2022-10-07T15:26:26.373Z,99.90
2022-10-07T15:28:57.774Z,99.90
2022-10-07T15:31:29.156Z,99.90
2022-10-07T15:33:59.148Z,99.90
2022-10-07T15:36:29.014Z,99.90
2022-10-07T15:39:00.207Z,99.90
2022-10-07T15:41:34.650Z,99.90
2022-10-07T15:44:06.613Z,99.90
2022-10-07T15:46:35.219Z,99.90
2022-10-07T15:49:04.439Z,99.90
2022-10-07T15:51:32.802Z,99.90
2022-10-07T15:54:00.757Z,99.90
2022-10-07T15:56:28.720Z,99.90
2022-10-07T15:58:58.452Z,99.90
2022-10-07T16:01:31.385Z,99.90
2022-10-07T16:04:01.394Z,99.90
2022-10-07T16:06:32.435Z,99.90
2022-10-07T16:09:02.134Z,99.90
2022-10-07T16:11:33.174Z,99.90
2022-10-07T16:14:02.865Z,99.90
2022-10-07T16:16:32.997Z,99.90
2022-10-07T16:19:02.010Z,99.90
2022-10-07T16:21:32.235Z,99.90
2022-10-07T16:24:04.653Z,99.90
2022-10-07T16:26:34.429Z,99.90
2022-10-07T16:29:20.951Z,99.90
2022-10-07T16:31:54.576Z,99.90
2022-10-07T16:34:25.686Z,99.90
2022-10-07T16:36:53.853Z,99.90
2022-10-07T16:39:22.725Z,99.90
2022-10-07T16:41:52.398Z,99.90
2022-10-07T16:44:21.812Z,99.90
2022-10-07T16:46:56.306Z,99.90
2022-10-07T16:49:26.127Z,99.90
2022-10-07T16:51:54.290Z,99.90
2022-10-07T16:54:22.902Z,99.90
2022-10-07T16:56:52.991Z,99.90
2022-10-07T16:59:24.172Z,99.90
2022-10-07T17:01:56.033Z,99.90
2022-10-07T17:04:25.526Z,99.90
2022-10-07T17:06:54.255Z,99.90
2022-10-07T17:09:25.584Z,99.90
2022-10-07T17:11:53.777Z,99.90
2022-10-07T17:14:23.823Z,99.90
2022-10-07T17:16:57.726Z,99.90
2022-10-07T17:19:28.295Z,99.90
2022-10-07T17:21:58.438Z,99.90
2022-10-07T17:24:27.056Z,99.90
2022-10-07T17:26:56.337Z,99.90
2022-10-07T17:29:26.303Z,99.90
2022-10-07T17:31:59.160Z,99.90
2022-10-07T17:34:27.611Z,99.90
2022-10-07T17:36:55.703Z,99.90
2022-10-07T17:39:23.701Z,99.90
2022-10-07T17:41:51.681Z,99.90
2022-10-07T17:44:21.351Z,99.90
2022-10-07T17:46:50.170Z,99.90
2022-10-07T17:49:28.139Z,99.90
2022-10-07T17:51:56.275Z,99.90
2022-10-07T17:54:27.047Z,99.90
2022-10-07T17:56:55.240Z,99.90
2022-10-07T17:59:23.221Z,99.90
2022-10-07T18:01:51.210Z,99.90
2022-10-07T18:04:24.847Z,99.90
2022-10-07T18:06:53.215Z,99.90
2022-10-07T18:09:22.714Z,99.90
2022-10-07T18:12:08.414Z,99.90
2022-10-07T18:14:54.535Z,99.90
2022-10-07T18:17:24.507Z,99.90
2022-10-07T18:19:54.122Z,99.90
2022-10-07T18:22:22.266Z,99.90
2022-10-07T18:24:50.552Z,99.90
2022-10-07T18:27:22.445Z,99.90
2022-10-07T18:29:50.430Z,99.90
2022-10-07T18:32:18.339Z,99.90
2022-10-07T18:34:46.396Z,99.90
2022-10-07T18:37:16.566Z,99.90
2022-10-07T18:39:44.831Z,99.90
2022-10-07T18:42:12.765Z,99.90
2022-10-07T18:44:40.788Z,99.90
2022-10-07T18:47:08.779Z,99.90
2022-10-07T18:49:36.825Z,99.90
2022-10-07T18:52:07.122Z,99.90
2022-10-07T18:54:36.484Z,99.90
2022-10-07T18:57:04.666Z,99.90
2022-10-07T18:59:32.638Z,99.90
2022-10-07T19:02:00.787Z,99.90
2022-10-07T19:04:30.871Z,99.90
2022-10-07T19:06:58.911Z,99.90
2022-10-07T19:09:27.174Z,99.90
2022-10-07T19:11:56.510Z,99.90
2022-10-07T19:14:25.791Z,99.90
2022-10-07T19:16:54.197Z,99.90
2022-10-07T19:19:25.165Z,99.90
2022-10-07T19:21:55.506Z,99.90
2022-10-07T19:24:45.402Z,99.90
2022-10-07T19:27:14.744Z,99.90
2022-10-07T19:29:42.760Z,99.90
2022-10-07T19:32:10.794Z,99.90
2022-10-07T19:34:40.414Z,99.90
2022-10-07T19:37:08.421Z,99.90
2022-10-07T19:39:36.846Z,99.90
2022-10-07T19:42:05.415Z,99.90
2022-10-07T19:44:34.727Z,99.90
2022-10-07T19:47:02.824Z,99.90
2022-10-07T19:49:30.796Z,99.90
2022-10-07T19:51:58.761Z,99.90
2022-10-07T19:54:26.746Z,99.90
2022-10-07T19:56:54.741Z,99.90
2022-10-07T19:59:22.767Z,99.90
2022-10-07T20:01:52.258Z,99.90
2022-10-07T20:04:21.337Z,99.90
2022-10-07T20:06:50.029Z,99.90
2022-10-07T20:09:19.997Z,99.90
2022-10-07T20:11:48.455Z,99.90
2022-10-07T20:14:16.820Z,99.90
2022-10-07T20:16:45.018Z,99.90
2022-10-07T20:19:18.742Z,99.90
2022-10-07T20:21:47.521Z,99.90
2022-10-07T20:24:19.249Z,99.90
2022-10-07T20:26:47.202Z,99.90
2022-10-07T20:29:16.363Z,99.90
2022-10-07T20:31:45.708Z,99.90
2022-10-07T20:34:19.993Z,99.90
2022-10-07T20:36:50.246Z,99.90
2022-10-07T20:39:38.199Z,99.90
2022-10-07T20:42:24.366Z,99.90
2022-10-07T20:44:53.785Z,99.90
2022-10-07T20:47:23.370Z,99.90
2022-10-07T20:49:52.711Z,99.90
2022-10-07T20:52:22.952Z,99.90
2022-10-07T20:54:52.671Z,99.90
2022-10-07T20:57:23.229Z,99.90
2022-10-07T20:59:52.405Z,99.90
2022-10-07T21:02:23.814Z,99.90
2022-10-07T21:04:53.556Z,99.90
2022-10-07T21:07:21.976Z,99.90
2022-10-07T21:09:49.978Z,99.90
2022-10-07T21:12:19.156Z,99.90
2022-10-07T21:14:48.459Z,99.90
2022-10-07T21:17:17.204Z,99.90
2022-10-07T21:19:48.314Z,99.90
2022-10-07T21:22:17.633Z,99.90
2022-10-07T21:24:46.428Z,99.90
2022-10-07T21:27:14.416Z,99.90
2022-10-07T21:29:46.785Z,99.90
2022-10-07T21:32:16.603Z,99.90
2022-10-07T21:34:44.636Z,99.90
2022-10-07T21:37:12.604Z,99.90
2022-10-07T21:39:41.928Z,99.90
2022-10-07T21:42:10.270Z,99.90
2022-10-07T21:44:38.223Z,99.90
2022-10-07T21:47:06.311Z,99.90
2022-10-07T21:49:34.259Z,99.90
2022-10-07T21:52:02.387Z,99.90
2022-10-07T21:54:30.384Z,99.90
2022-10-07T21:56:59.750Z,99.90
2022-10-07T21:59:27.761Z,99.90
2022-10-07T22:01:55.826Z,99.90
2022-10-07T22:04:24.341Z,99.90
2022-10-07T22:07:09.894Z,99.90
2022-10-07T22:09:37.837Z,99.90
2022-10-07T22:12:07.916Z,99.90
2022-10-07T22:14:35.957Z,99.90
2022-10-07T22:17:04.299Z,99.90
2022-10-07T22:19:32.282Z,99.90
2022-10-07T22:22:00.514Z,99.90
2022-10-07T22:24:28.451Z,99.90
2022-10-07T22:26:56.419Z,99.90
2022-10-07T22:29:25.997Z,99.90
2022-10-07T22:31:54.783Z,99.90
2022-10-07T22:34:42.537Z,99.90
2022-10-07T22:37:10.775Z,99.90
2022-10-07T22:39:38.759Z,99.90
2022-10-07T22:42:06.858Z,99.90
2022-10-07T22:44:36.201Z,99.90
2022-10-07T22:47:04.413Z,99.90
2022-10-07T22:49:32.401Z,99.90
2022-10-07T22:52:00.700Z,99.90
2022-10-07T22:54:29.755Z,99.90
2022-10-07T22:56:57.792Z,99.90
2022-10-07T22:59:25.905Z,99.90
2022-10-07T23:01:55.270Z,99.90
2022-10-07T23:04:23.265Z,99.90
2022-10-07T23:06:51.218Z,99.90
2022-10-07T23:09:20.884Z,99.90
2022-10-07T23:11:48.916Z,99.90
2022-10-07T23:14:17.888Z,99.90
2022-10-07T23:16:45.860Z,99.90
2022-10-07T23:19:15.414Z,99.90
2022-10-07T23:21:43.918Z,99.90
2022-10-07T23:24:12.323Z,99.90
2022-10-07T23:26:40.354Z,99.90
2022-10-07T23:29:08.628Z,99.90
2022-10-07T23:31:36.801Z,99.90
2022-10-07T23:34:06.471Z,99.90
2022-10-07T23:36:35.806Z,99.90
2022-10-07T23:39:03.869Z,99.90
2022-10-07T23:41:32.722Z,99.90
2022-10-07T23:44:03.181Z,99.90
2022-10-07T23:46:35.848Z,99.90
2022-10-07T23:49:05.083Z,99.90
2022-10-07T23:51:35.056Z,99.90
2022-10-07T23:54:05.149Z,99.90
2022-10-07T23:56:34.197Z,99.90
2022-10-07T23:59:02.823Z,99.90
